createdAt,value
2022-12-23T00:01:24.525Z,97526.44
2022-12-23T00:03:53.144Z,97529.38
2022-12-23T00:06:21.417Z,97525.72
2022-12-23T00:08:48.573Z,97516.88
2022-12-23T00:11:20.705Z,97522.09
2022-12-23T00:14:06.634Z,97532.75
2022-12-23T00:16:37.725Z,97543.53
2022-12-23T00:19:05.835Z,97540.47
2022-12-23T00:21:33.517Z,97524.44
2022-12-23T00:24:00.712Z,97531.84
2022-12-23T00:26:28.433Z,97529.72
2022-12-23T00:29:01.386Z,97527.59
2022-12-23T00:31:28.566Z,97522.44
2022-12-23T00:33:55.774Z,97520.16
2022-12-23T00:36:30.380Z,97522.06
2022-12-23T00:39:18.393Z,97526.94
2022-12-23T00:42:04.718Z,97523.75
2022-12-23T00:44:32.240Z,97534.78
2022-12-23T00:46:59.248Z,97534.81
2022-12-23T00:49:45.098Z,97524.44
2022-12-23T00:52:15.892Z,97520.75
2022-12-23T00:54:43.182Z,97520.88
2022-12-23T00:57:10.501Z,97525.59
2022-12-23T00:59:38.200Z,97517.34
2022-12-23T01:02:24.361Z,97519.50
2022-12-23T01:05:10.156Z,97509.34
2022-12-23T01:07:37.863Z,97514.75
2022-12-23T01:10:05.554Z,97512.59
2022-12-23T01:12:32.685Z,97515.06
2022-12-23T01:14:59.868Z,97524.41
2022-12-23T01:17:27.067Z,97524.16
2022-12-23T01:19:54.287Z,97525.47
2022-12-23T01:22:21.486Z,97542.47
2022-12-23T01:24:48.691Z,97545.00
2022-12-23T01:27:15.830Z,97540.06
2022-12-23T01:29:43.018Z,97540.44
2022-12-23T01:32:10.322Z,97536.47
2022-12-23T01:34:37.883Z,97532.13
2022-12-23T01:37:05.896Z,97534.66
2022-12-23T01:39:33.201Z,97532.41
2022-12-23T01:42:23.665Z,97529.19
2022-12-23T01:45:04.738Z,97531.81
2022-12-23T01:48:00.602Z,97524.75
2022-12-23T01:50:53.770Z,97533.91
2022-12-23T01:53:45.409Z,97530.59
2022-12-23T01:56:39.708Z,97521.03
2022-12-23T01:59:34.365Z,97519.28
2022-12-23T02:02:22.695Z,97508.66
2022-12-23T02:04:53.725Z,97508.03
2022-12-23T02:07:41.181Z,97504.50
2022-12-23T02:10:13.339Z,97500.72
2022-12-23T02:13:11.987Z,97490.44
2022-12-23T02:16:18.417Z,97495.78
2022-12-23T02:19:33.216Z,97503.66
2022-12-23T02:22:54.872Z,97510.50
2022-12-23T02:26:06.083Z,97521.22
2022-12-23T02:28:54.744Z,97536.94
2022-12-23T02:32:14.860Z,97533.22
2022-12-23T02:35:06.467Z,97527.44
2022-12-23T02:38:26.745Z,97511.09
2022-12-23T02:41:09.712Z,97506.72
2022-12-23T02:44:02.263Z,97508.34
2022-12-23T02:46:58.099Z,97520.28
2022-12-23T02:49:41.164Z,97531.88
2022-12-23T02:52:15.911Z,97534.78
2022-12-23T02:54:51.918Z,97525.50
2022-12-23T02:57:29.797Z,97523.38
2022-12-23T03:00:00.275Z,97519.81
2022-12-23T03:02:27.829Z,97511.09
2022-12-23T03:04:55.089Z,97501.75
2022-12-23T03:07:33.918Z,97511.72
2022-12-23T03:10:39.044Z,97513.63
2022-12-23T03:13:57.429Z,97513.91
2022-12-23T03:16:53.471Z,97523.25
2022-12-23T03:19:59.423Z,97526.22
2022-12-23T03:23:01.811Z,97530.47
2022-12-23T03:26:09.442Z,97520.84
2022-12-23T03:29:06.449Z,97514.19
2022-12-23T03:31:35.796Z,97494.91
2022-12-23T03:34:11.116Z,97491.56
2022-12-23T03:36:51.712Z,97496.22
2022-12-23T03:39:25.711Z,97480.22
2022-12-23T03:42:09.056Z,97474.22
2022-12-23T03:45:03.690Z,97471.22
2022-12-23T03:47:45.430Z,97461.28
2022-12-23T03:50:17.636Z,97459.03
2022-12-23T03:52:55.807Z,97444.09
2022-12-23T03:55:45.612Z,97444.25
2022-12-23T03:58:58.827Z,97450.28
2022-12-23T04:01:51.228Z,97440.03
2022-12-23T04:04:30.447Z,97435.34
2022-12-23T04:07:16.766Z,97438.03
2022-12-23T04:09:45.167Z,97426.47
2022-12-23T04:12:14.929Z,97427.06
2022-12-23T04:14:50.478Z,97432.81
2022-12-23T04:17:19.144Z,97426.38
2022-12-23T04:19:47.319Z,97429.34
2022-12-23T04:22:16.160Z,97430.53
2022-12-23T04:24:46.071Z,97424.63
2022-12-23T04:27:19.750Z,97424.22
2022-12-23T04:29:53.856Z,97447.03
2022-12-23T04:32:22.679Z,97456.28
2022-12-23T04:34:49.926Z,97454.31
2022-12-23T04:37:20.209Z,97454.03
2022-12-23T04:39:47.801Z,97453.31
2022-12-23T04:42:16.522Z,97457.72
2022-12-23T04:44:43.616Z,97455.34
2022-12-23T04:47:10.884Z,97461.59
2022-12-23T04:49:38.176Z,97446.38
2022-12-23T04:52:05.761Z,97441.34
2022-12-23T04:54:33.022Z,97453.50
2022-12-23T04:57:00.486Z,97456.53
2022-12-23T04:59:27.645Z,97440.03
2022-12-23T05:01:54.927Z,97453.66
2022-12-23T05:04:22.190Z,97452.22
2022-12-23T05:06:52.929Z,97456.22
2022-12-23T05:09:21.948Z,97452.25
2022-12-23T05:11:52.448Z,97453.91
2022-12-23T05:14:20.111Z,97453.81
2022-12-23T05:16:48.788Z,97456.81
2022-12-23T05:19:16.117Z,97458.47
2022-12-23T05:21:43.280Z,97455.06
2022-12-23T05:24:12.559Z,97455.31
2022-12-23T05:26:39.697Z,97470.41
2022-12-23T05:29:09.773Z,97486.75
2022-12-23T05:31:37.131Z,97486.34
2022-12-23T05:34:06.615Z,97486.34
2022-12-23T05:36:34.169Z,97484.91
2022-12-23T05:39:01.313Z,97475.50
2022-12-23T05:41:28.530Z,97472.16
2022-12-23T05:43:55.837Z,97476.16
2022-12-23T05:46:26.878Z,97472.09
2022-12-23T05:48:54.687Z,97466.00
2022-12-23T05:51:21.890Z,97464.03
2022-12-23T05:53:49.202Z,97464.97
2022-12-23T05:56:16.362Z,97466.38
2022-12-23T05:58:43.648Z,97466.31
2022-12-23T06:01:12.193Z,97471.25
2022-12-23T06:03:39.462Z,97469.16
2022-12-23T06:06:07.243Z,97479.50
2022-12-23T06:08:34.895Z,97484.13
2022-12-23T06:11:05.794Z,97484.22
2022-12-23T06:13:32.930Z,97490.69
2022-12-23T06:16:00.118Z,97482.22
2022-12-23T06:18:27.396Z,97481.34
2022-12-23T06:20:54.843Z,97484.00
2022-12-23T06:23:22.025Z,97482.59
2022-12-23T06:25:49.185Z,97486.59
2022-12-23T06:28:16.618Z,97493.56
2022-12-23T06:30:43.996Z,97478.38
2022-12-23T06:33:11.108Z,97479.25
2022-12-23T06:35:38.261Z,97477.63
2022-12-23T06:38:11.701Z,97470.28
2022-12-23T06:40:40.538Z,97475.50
2022-12-23T06:43:08.069Z,97474.06
2022-12-23T06:45:35.203Z,97469.94
2022-12-23T06:48:02.373Z,97491.06
2022-12-23T06:50:29.580Z,97498.13
2022-12-23T06:52:57.796Z,97495.75
2022-12-23T06:55:25.027Z,97504.59
2022-12-23T06:57:52.236Z,97500.94
2022-12-23T07:00:20.261Z,97499.97
2022-12-23T07:02:47.520Z,97502.84
2022-12-23T07:05:15.117Z,97503.31
2022-12-23T07:07:42.123Z,97507.28
2022-12-23T07:10:10.236Z,97497.78
2022-12-23T07:12:37.467Z,97490.53
2022-12-23T07:15:07.814Z,97501.22
2022-12-23T07:17:35.092Z,97501.38
2022-12-23T07:20:02.292Z,97500.81
2022-12-23T07:22:29.725Z,97509.91
2022-12-23T07:24:56.953Z,97501.88
2022-12-23T07:27:24.116Z,97507.00
2022-12-23T07:29:52.092Z,97505.84
2022-12-23T07:32:19.360Z,97506.25
2022-12-23T07:34:46.568Z,97493.00
2022-12-23T07:37:13.711Z,97497.63
2022-12-23T07:39:40.904Z,97499.50
2022-12-23T07:42:42.726Z,97495.44
2022-12-23T07:44:55.255Z,97506.25
2022-12-23T07:47:23.606Z,97500.47
2022-12-23T07:49:51.560Z,97519.72
2022-12-23T07:52:18.811Z,97530.81
2022-12-23T07:54:46.011Z,97535.03
2022-12-23T07:57:13.208Z,97538.09
2022-12-23T07:59:40.466Z,97537.84
2022-12-23T08:02:07.924Z,97528.91
2022-12-23T08:04:37.458Z,97519.97
2022-12-23T08:07:10.468Z,97505.34
2022-12-23T08:09:37.605Z,97501.63
2022-12-23T08:12:04.994Z,97504.84
2022-12-23T08:14:33.137Z,97503.75
2022-12-23T08:17:00.361Z,97507.50
2022-12-23T08:19:27.623Z,97506.28
2022-12-23T08:21:54.835Z,97507.75
2022-12-23T08:24:22.213Z,97499.13
2022-12-23T08:26:49.277Z,97502.19
2022-12-23T08:29:18.025Z,97502.16
2022-12-23T08:31:45.203Z,97520.94
2022-12-23T08:34:12.530Z,97513.22
2022-12-23T08:36:40.201Z,97503.97
2022-12-23T08:39:13.144Z,97506.38
2022-12-23T08:41:45.676Z,97512.56
2022-12-23T08:44:14.007Z,97519.88
2022-12-23T08:46:42.729Z,97520.88
2022-12-23T08:49:10.937Z,97520.38
2022-12-23T08:51:39.266Z,97510.59
2022-12-23T08:54:07.766Z,97525.91
2022-12-23T08:56:41.381Z,97543.13
2022-12-23T08:59:19.519Z,97540.66
2022-12-23T09:01:48.341Z,97520.66
2022-12-23T09:04:16.072Z,97516.72
2022-12-23T09:06:45.549Z,97521.09
2022-12-23T09:09:15.898Z,97500.28
2022-12-23T09:11:43.352Z,97513.25
2022-12-23T09:14:11.816Z,97526.38
2022-12-23T09:16:39.822Z,97538.63
2022-12-23T09:19:08.069Z,97551.28
2022-12-23T09:21:35.771Z,97565.59
2022-12-23T09:24:04.097Z,97573.53
2022-12-23T09:26:33.560Z,97565.91
2022-12-23T09:29:00.889Z,97573.53
2022-12-23T09:31:34.412Z,97542.75
2022-12-23T09:34:04.662Z,97544.31
2022-12-23T09:39:13.989Z,97572.44
2022-12-23T09:42:03.320Z,97549.25
2022-12-23T09:44:55.083Z,97565.69
2022-12-23T09:47:26.967Z,97563.00
2022-12-23T09:50:03.376Z,97556.94
2022-12-23T09:53:05.828Z,97547.88
2022-12-23T09:56:34.444Z,97558.78
2022-12-23T09:59:35.009Z,97571.16
2022-12-23T10:02:23.496Z,97560.91
2022-12-23T10:05:07.516Z,97555.25
2022-12-23T10:07:47.948Z,97537.31
2022-12-23T10:10:45.461Z,97542.88
2022-12-23T10:13:39.520Z,97532.63
2022-12-23T10:16:19.756Z,97546.59
2022-12-23T10:19:05.175Z,97550.88
2022-12-23T10:21:50.183Z,97551.41
2022-12-23T10:24:28.057Z,97538.41
2022-12-23T10:27:01.535Z,97521.34
2022-12-23T10:29:34.122Z,97528.34
2022-12-23T10:32:19.839Z,97528.31
2022-12-23T10:35:13.567Z,97545.78
2022-12-23T10:37:52.813Z,97545.63
2022-12-23T10:40:57.517Z,97532.06
2022-12-23T10:44:12.395Z,97527.56
2022-12-23T10:47:24.545Z,97526.78
2022-12-23T10:50:35.261Z,97539.78
2022-12-23T10:53:12.646Z,97532.50
2022-12-23T10:55:40.239Z,97534.81
2022-12-23T10:58:16.595Z,97527.97
2022-12-23T11:00:53.975Z,97515.97
2022-12-23T11:04:03.440Z,97503.56
2022-12-23T11:06:37.455Z,97478.06
2022-12-23T11:09:16.667Z,97469.63
2022-12-23T11:12:06.366Z,97486.81
2022-12-23T11:14:58.361Z,97473.38
2022-12-23T11:17:31.608Z,97467.19
2022-12-23T11:20:11.211Z,97463.25
2022-12-23T11:23:02.354Z,97477.59
2022-12-23T11:25:40.513Z,97479.19
2022-12-23T11:28:14.933Z,97473.88
2022-12-23T11:30:56.597Z,97454.97
2022-12-23T11:33:40.063Z,97456.50
2022-12-23T11:36:18.259Z,97461.22
2022-12-23T11:39:00.250Z,97457.00
2022-12-23T11:41:38.116Z,97444.97
2022-12-23T11:44:33.767Z,97446.38
2022-12-23T11:47:29.388Z,97454.94
2022-12-23T11:50:03.948Z,97447.91
2022-12-23T11:52:34.118Z,97463.19
2022-12-23T11:55:05.519Z,97447.34
2022-12-23T11:57:46.706Z,97420.66
2022-12-23T12:00:30.538Z,97419.47
2022-12-23T12:03:02.446Z,97418.47
2022-12-23T12:05:57.935Z,97423.41
2022-12-23T12:08:34.263Z,97434.63
2022-12-23T12:11:19.346Z,97429.16
2022-12-23T12:13:55.965Z,97414.88
2022-12-23T12:16:54.260Z,97422.09
2022-12-23T12:19:35.876Z,97410.00
2022-12-23T12:22:16.800Z,97395.09
2022-12-23T12:24:56.295Z,97415.94
2022-12-23T12:27:39.702Z,97427.38
2022-12-23T12:30:15.985Z,97406.50
2022-12-23T12:33:01.131Z,97415.69
2022-12-23T12:35:53.999Z,97409.78
2022-12-23T12:38:36.570Z,97414.94
2022-12-23T12:41:24.593Z,97405.94
2022-12-23T12:44:15.936Z,97391.56
2022-12-23T12:47:07.022Z,97401.06
2022-12-23T12:49:57.299Z,97418.06
2022-12-23T12:52:36.582Z,97416.34
2022-12-23T12:55:55.280Z,97405.38
2022-12-23T12:58:25.260Z,97413.75
2022-12-23T13:01:12.454Z,97407.88
2022-12-23T13:03:45.438Z,97401.16
2022-12-23T13:06:32.079Z,97385.84
2022-12-23T13:09:16.805Z,97389.84
2022-12-23T13:12:19.378Z,97401.31
2022-12-23T13:15:21.737Z,97403.31
2022-12-23T13:18:04.148Z,97402.72
2022-12-23T13:21:02.242Z,97404.94
2022-12-23T13:24:15.258Z,97413.34
2022-12-23T13:27:20.042Z,97408.81
2022-12-23T13:30:14.251Z,97403.09
2022-12-23T13:33:18.817Z,97397.22
2022-12-23T13:36:14.749Z,97401.59
2022-12-23T13:39:40.810Z,97400.22
2022-12-23T13:42:22.906Z,97398.13
2022-12-23T13:45:14.821Z,97398.84
2022-12-23T13:48:43.340Z,97388.78
2022-12-23T13:51:28.596Z,97367.91
2022-12-23T13:54:10.551Z,97371.91
2022-12-23T13:56:53.823Z,97377.34
2022-12-23T13:59:21.136Z,97383.25
2022-12-23T14:01:52.723Z,97400.19
2022-12-23T14:04:59.988Z,97397.50
2022-12-23T14:07:32.031Z,97400.38
2022-12-23T14:10:20.000Z,97386.59
2022-12-23T14:12:48.211Z,97390.78
2022-12-23T14:16:11.911Z,97401.63
2022-12-23T14:18:58.452Z,97401.19
2022-12-23T14:21:56.170Z,97406.59
2022-12-23T14:25:19.599Z,97396.28
2022-12-23T14:27:53.051Z,97401.03
2022-12-23T14:30:45.853Z,97387.25
2022-12-23T14:33:19.390Z,97388.00
2022-12-23T14:35:46.535Z,97379.78
2022-12-23T14:38:17.079Z,97376.13
2022-12-23T14:40:51.346Z,97382.72
2022-12-23T14:43:46.437Z,97377.94
2022-12-23T14:46:48.913Z,97392.81
2022-12-23T14:49:40.090Z,97396.09
2022-12-23T14:52:40.786Z,97410.13
2022-12-23T14:55:32.399Z,97414.69
2022-12-23T14:58:11.451Z,97411.84
2022-12-23T15:00:53.316Z,97420.66
2022-12-23T15:03:57.391Z,97424.50
2022-12-23T15:06:57.081Z,97424.50
2022-12-23T15:09:43.371Z,97427.56
2022-12-23T15:12:35.099Z,97423.38
2022-12-23T15:15:18.668Z,97413.13
2022-12-23T15:17:47.427Z,97411.78
2022-12-23T15:20:21.573Z,97405.34
2022-12-23T15:22:51.270Z,97413.75
2022-12-23T15:25:30.307Z,97431.03
2022-12-23T15:28:02.133Z,97441.53
2022-12-23T15:30:46.243Z,97445.41
2022-12-23T15:34:00.693Z,97446.47
2022-12-23T15:36:11.510Z,97447.13
2022-12-23T15:38:40.079Z,97448.84
2022-12-23T15:41:17.045Z,97451.84
2022-12-23T15:43:45.674Z,97451.41
2022-12-23T15:46:29.246Z,97444.13
2022-12-23T15:48:57.671Z,97440.09
2022-12-23T15:52:06.353Z,97446.25
2022-12-23T15:54:31.728Z,97453.09
2022-12-23T15:57:01.548Z,97461.69
2022-12-23T15:59:50.459Z,97458.09
2022-12-23T16:03:00.377Z,97459.44
2022-12-23T16:05:37.121Z,97455.66
2022-12-23T16:08:23.063Z,97469.41
2022-12-23T16:11:12.308Z,97472.28
2022-12-23T16:13:46.689Z,97447.53
2022-12-23T16:16:30.565Z,97449.09
2022-12-23T16:18:57.927Z,97452.28
2022-12-23T16:21:30.477Z,97438.25
2022-12-23T16:23:59.141Z,97440.91
2022-12-23T16:26:27.022Z,97458.16
2022-12-23T16:29:00.930Z,97470.31
2022-12-23T16:31:28.549Z,97471.84
2022-12-23T16:33:58.515Z,97462.25
2022-12-23T16:36:25.696Z,97472.69
2022-12-23T16:39:06.741Z,97460.31
2022-12-23T16:41:35.155Z,97454.28
2022-12-23T16:44:02.868Z,97450.22
2022-12-23T16:46:36.792Z,97468.84
2022-12-23T16:49:11.220Z,97461.94
2022-12-23T16:51:40.778Z,97461.91
2022-12-23T16:54:19.477Z,97454.72
2022-12-23T16:57:05.944Z,97470.19
2022-12-23T16:59:33.521Z,97471.28
2022-12-23T17:02:03.697Z,97483.38
2022-12-23T17:04:31.307Z,97475.34
2022-12-23T17:06:58.642Z,97469.88
2022-12-23T17:09:26.177Z,97470.13
2022-12-23T17:11:54.671Z,97476.84
2022-12-23T17:14:26.097Z,97476.50
2022-12-23T17:16:53.827Z,97475.44
2022-12-23T17:19:27.761Z,97479.72
2022-12-23T17:22:02.182Z,97482.22
2022-12-23T17:24:29.630Z,97479.72
2022-12-23T17:26:59.798Z,97480.28
2022-12-23T17:29:27.254Z,97488.84
2022-12-23T17:31:57.522Z,97486.09
2022-12-23T17:34:25.487Z,97481.41
2022-12-23T17:36:53.265Z,97481.16
2022-12-23T17:39:22.329Z,97486.44
2022-12-23T17:41:50.279Z,97493.69
2022-12-23T17:44:18.654Z,97486.91
2022-12-23T17:46:47.590Z,97493.22
2022-12-23T17:49:15.731Z,97500.38
2022-12-23T17:51:43.663Z,97496.28
2022-12-23T17:54:32.791Z,97493.78
2022-12-23T17:57:00.071Z,97486.66
2022-12-23T17:59:27.213Z,97490.78
2022-12-23T18:01:54.608Z,97499.84
2022-12-23T18:04:21.792Z,97495.13
2022-12-23T18:06:49.017Z,97492.44
2022-12-23T18:09:16.927Z,97486.09
2022-12-23T18:11:46.867Z,97492.56
2022-12-23T18:14:20.541Z,97503.63
2022-12-23T18:16:47.722Z,97497.06
2022-12-23T18:19:20.955Z,97499.66
2022-12-23T18:21:51.460Z,97497.63
2022-12-23T18:24:19.266Z,97497.84
2022-12-23T18:26:47.787Z,97496.38
2022-12-23T18:29:15.127Z,97505.19
2022-12-23T18:31:51.168Z,97501.91
2022-12-23T18:34:20.372Z,97514.59
2022-12-23T18:36:48.630Z,97515.84
2022-12-23T18:39:16.071Z,97505.03
2022-12-23T18:41:43.316Z,97502.25
2022-12-23T18:44:20.105Z,97502.66
2022-12-23T18:46:48.534Z,97502.25
2022-12-23T18:49:15.817Z,97496.41
2022-12-23T18:51:43.180Z,97495.94
2022-12-23T18:54:16.189Z,97488.53
2022-12-23T18:56:43.877Z,97489.81
2022-12-23T18:59:28.981Z,97484.38
2022-12-23T19:01:57.153Z,97478.03
2022-12-23T19:04:27.328Z,97481.09
2022-12-23T19:06:57.816Z,97487.22
2022-12-23T19:09:25.878Z,97496.66
2022-12-23T19:11:54.396Z,97506.13
2022-12-23T19:14:22.899Z,97509.28
2022-12-23T19:16:52.719Z,97508.63
2022-12-23T19:19:22.374Z,97495.22
2022-12-23T19:21:49.839Z,97500.94
2022-12-23T19:24:18.730Z,97500.88
2022-12-23T19:26:46.073Z,97493.19
2022-12-23T19:29:13.478Z,97512.00
2022-12-23T19:31:41.636Z,97507.69
2022-12-23T19:34:15.121Z,97512.69
2022-12-23T19:36:43.965Z,97529.50
2022-12-23T19:39:16.843Z,97529.63
2022-12-23T19:41:47.599Z,97528.97
2022-12-23T19:44:15.027Z,97533.75
2022-12-23T19:46:43.476Z,97520.19
2022-12-23T19:49:17.454Z,97537.66
2022-12-23T19:51:46.638Z,97547.97
2022-12-23T19:54:13.955Z,97540.06
2022-12-23T19:56:41.462Z,97539.13
2022-12-23T19:59:09.921Z,97540.31
2022-12-23T20:01:39.192Z,97545.69
2022-12-23T20:04:06.565Z,97542.91
2022-12-23T20:06:38.411Z,97544.88
2022-12-23T20:09:09.237Z,97533.88
2022-12-23T20:11:40.875Z,97540.75
2022-12-23T20:14:10.172Z,97520.75
2022-12-23T20:16:39.983Z,97528.63
2022-12-23T20:19:09.680Z,97515.94
2022-12-23T20:21:37.745Z,97519.84
2022-12-23T20:24:07.149Z,97541.03
2022-12-23T20:26:38.662Z,97542.06
2022-12-23T20:29:12.381Z,97543.44
2022-12-23T20:31:40.077Z,97537.94
2022-12-23T20:34:13.592Z,97537.91
2022-12-23T20:36:41.016Z,97540.47
2022-12-23T20:39:08.682Z,97543.31
2022-12-23T20:41:36.144Z,97540.63
2022-12-23T20:46:55.016Z,97559.69
2022-12-23T20:49:25.263Z,97574.31
2022-12-23T20:51:54.807Z,97565.47
2022-12-23T20:54:26.385Z,97574.19
2022-12-23T20:56:59.176Z,97581.03
2022-12-23T20:59:36.780Z,97577.00
2022-12-23T21:02:04.036Z,97580.06
2022-12-23T21:04:33.361Z,97563.81
2022-12-23T21:07:02.236Z,97550.25
2022-12-23T21:09:31.139Z,97552.38
2022-12-23T21:12:02.203Z,97550.72
2022-12-23T21:14:31.187Z,97554.50
2022-12-23T21:17:01.196Z,97546.91
2022-12-23T21:19:29.059Z,97541.38
2022-12-23T21:21:59.169Z,97539.63
2022-12-23T21:24:31.343Z,97535.25
2022-12-23T21:26:59.090Z,97541.66
2022-12-23T21:29:28.281Z,97546.72
2022-12-23T21:31:58.802Z,97539.88
2022-12-23T21:34:28.506Z,97535.50
2022-12-23T21:36:56.916Z,97526.44
2022-12-23T21:39:24.129Z,97533.13
2022-12-23T21:41:52.957Z,97525.38
2022-12-23T21:44:21.230Z,97515.25
2022-12-23T21:46:51.186Z,97520.66
2022-12-23T21:49:22.193Z,97516.16
2022-12-23T21:51:51.217Z,97516.78
2022-12-23T21:54:18.441Z,97528.09
2022-12-23T21:56:45.902Z,97532.22
2022-12-23T21:59:15.592Z,97545.59
2022-12-23T22:01:43.962Z,97540.56
2022-12-23T22:04:11.838Z,97537.41
2022-12-23T22:06:43.858Z,97543.75
2022-12-23T22:09:18.465Z,97539.53
2022-12-23T22:11:48.066Z,97530.91
2022-12-23T22:14:19.007Z,97540.47
2022-12-23T22:16:47.751Z,97535.22
2022-12-23T22:19:16.989Z,97526.06
2022-12-23T22:21:44.606Z,97527.69
2022-12-23T22:24:12.393Z,97533.09
2022-12-23T22:26:40.808Z,97526.06
2022-12-23T22:29:08.480Z,97526.31
2022-12-23T22:31:44.700Z,97534.56
2022-12-23T22:34:19.983Z,97526.34
2022-12-23T22:36:48.626Z,97530.09
2022-12-23T22:39:20.928Z,97529.38
2022-12-23T22:41:50.072Z,97526.03
2022-12-23T22:44:17.951Z,97526.06
2022-12-23T22:46:45.415Z,97530.63
2022-12-23T22:49:15.667Z,97529.69
2022-12-23T22:51:44.495Z,97520.50
2022-12-23T22:54:12.158Z,97519.75
2022-12-23T22:56:39.921Z,97521.69
2022-12-23T22:59:07.275Z,97509.41
2022-12-23T23:01:36.338Z,97515.75
2022-12-23T23:04:05.036Z,97514.31
2022-12-23T23:06:39.189Z,97508.50
2022-12-23T23:09:09.414Z,97517.66
2022-12-23T23:11:39.504Z,97505.00
2022-12-23T23:14:07.619Z,97516.44
2022-12-23T23:16:34.907Z,97515.28
2022-12-23T23:19:04.053Z,97507.59
2022-12-23T23:21:32.079Z,97527.16
2022-12-23T23:23:59.236Z,97524.66
2022-12-23T23:26:27.592Z,97531.66
2022-12-23T23:28:56.533Z,97548.16
2022-12-23T23:31:42.442Z,97538.16
2022-12-23T23:34:10.849Z,97527.44
2022-12-23T23:36:38.013Z,97521.97
2022-12-23T23:39:05.413Z,97511.56
2022-12-23T23:41:32.506Z,97513.28
2022-12-23T23:43:59.695Z,97518.06
2022-12-23T23:46:26.916Z,97524.75
2022-12-23T23:48:54.145Z,97505.47
2022-12-23T23:51:21.392Z,97494.38
2022-12-23T23:53:48.556Z,97489.69
2022-12-23T23:56:23.792Z,97499.63
2022-12-23T23:58:52.180Z,97498.13
